sensor_id;sensor_type;location;lat;lon;timestamp;temperature;humidity
9939;DHT22;5008;50.656;7.188;2023-09-30T04:01:21;14.30;99.90
9939;DHT22;5008;50.656;7.188;2023-09-30T04:03:49;14.50;99.90
9939;DHT22;5008;50.656;7.188;2023-09-30T04:06:15;14.60;99.90
9939;DHT22;5008;50.656;7.188;2023-09-30T04:08:42;14.60;99.90
9939;DHT22;5008;50.656;7.188;2023-09-30T04:11:09;14.50;99.90
9939;DHT22;5008;50.656;7.188;2023-09-30T04:13:42;14.40;99.90
9939;DHT22;5008;50.656;7.188;2023-09-30T04:16:09;14.30;99.90
9939;DHT22;5008;50.656;7.188;2023-09-30T04:18:37;14.30;99.90
9939;DHT22;5008;50.656;7.188;2023-09-30T04:21:06;14.40;99.90
9939;DHT22;5008;50.656;7.188;2023-09-30T04:23:33;14.30;99.90
9939;DHT22;5008;50.656;7.188;2023-09-30T04:26:02;14.30;99.90
9939;DHT22;5008;50.656;7.188;2023-09-30T04:28:29;14.40;99.90
9939;DHT22;5008;50.656;7.188;2023-09-30T04:30:56;14.40;99.90
9939;DHT22;5008;50.656;7.188;2023-09-30T04:33:23;14.30;99.90
9939;DHT22;5008;50.656;7.188;2023-09-30T04:35:52;14.30;99.90
9939;DHT22;5008;50.656;7.188;2023-09-30T04:38:19;14.20;99.90
9939;DHT22;5008;50.656;7.188;2023-09-30T04:40:45;14.20;99.90
9939;DHT22;5008;50.656;7.188;2023-09-30T04:43:16;14.20;99.90
9939;DHT22;5008;50.656;7.188;2023-09-30T04:45:43;14.40;99.90
9939;DHT22;5008;50.656;7.188;2023-09-30T04:48:10;14.40;99.90
9939;DHT22;5008;50.656;7.188;2023-09-30T04:50:39;14.40;99.90
9939;DHT22;5008;50.656;7.188;2023-09-30T04:53:07;14.50;99.90
9939;DHT22;5008;50.656;7.188;2023-09-30T04:55:34;14.40;99.90
9939;DHT22;5008;50.656;7.188;2023-09-30T04:58:03;14.30;99.90
9939;DHT22;5008;50.656;7.188;2023-09-30T05:00:30;14.40;99.90
9939;DHT22;5008;50.656;7.188;2023-09-30T05:02:57;14.50;99.90
9939;DHT22;5008;50.656;7.188;2023-09-30T05:05:25;14.70;99.90
9939;DHT22;5008;50.656;7.188;2023-09-30T05:07:51;14.70;99.90
9939;DHT22;5008;50.656;7.188;2023-09-30T05:10:20;14.60;99.90
9939;DHT22;5008;50.656;7.188;2023-09-30T05:12:47;14.80;99.90
9939;DHT22;5008;50.656;7.188;2023-09-30T05:15:14;14.70;99.90
9939;DHT22;5008;50.656;7.188;2023-09-30T05:17:41;14.70;99.90
9939;DHT22;5008;50.656;7.188;2023-09-30T05:20:10;14.60;99.90
9939;DHT22;5008;50.656;7.188;2023-09-30T05:22:38;14.60;99.90
9939;DHT22;5008;50.656;7.188;2023-09-30T05:25:06;14.70;99.90
9939;DHT22;5008;50.656;7.188;2023-09-30T05:27:34;14.80;99.90
9939;DHT22;5008;50.656;7.188;2023-09-30T05:30:01;14.90;99.90
9939;DHT22;5008;50.656;7.188;2023-09-30T05:32:28;15.00;99.90
9939;DHT22;5008;50.656;7.188;2023-09-30T05:34:56;15.10;99.90
9939;DHT22;5008;50.656;7.188;2023-09-30T05:37:24;15.10;99.90
9939;DHT22;5008;50.656;7.188;2023-09-30T05:39:51;15.10;99.90
9939;DHT22;5008;50.656;7.188;2023-09-30T05:42:18;15.10;99.90
9939;DHT22;5008;50.656;7.188;2023-09-30T05:44:47;15.10;99.90
9939;DHT22;5008;50.656;7.188;2023-09-30T05:47:14;15.10;99.90
9939;DHT22;5008;50.656;7.188;2023-09-30T05:49:41;15.20;99.90
9939;DHT22;5008;50.656;7.188;2023-09-30T05:52:08;15.40;99.90
9939;DHT22;5008;50.656;7.188;2023-09-30T05:54:34;15.50;99.90
9939;DHT22;5008;50.656;7.188;2023-09-30T05:57:02;15.50;99.90
9939;DHT22;5008;50.656;7.188;2023-09-30T05:59:29;15.40;99.90
9939;DHT22;5008;50.656;7.188;2023-09-30T06:01:57;15.40;99.90
9939;DHT22;5008;50.656;7.188;2023-09-30T06:04:24;15.40;99.90
9939;DHT22;5008;50.656;7.188;2023-09-30T06:06:51;15.30;99.90
9939;DHT22;5008;50.656;7.188;2023-09-30T06:09:18;15.40;99.90
9939;DHT22;5008;50.656;7.188;2023-09-30T06:11:50;15.40;99.90
9939;DHT22;5008;50.656;7.188;2023-09-30T06:14:17;15.50;99.90
9939;DHT22;5008;50.656;7.188;2023-09-30T06:16:44;15.50;99.90
9939;DHT22;5008;50.656;7.188;2023-09-30T06:19:12;15.60;99.90
9939;DHT22;5008;50.656;7.188;2023-09-30T06:21:39;15.60;99.90
9939;DHT22;5008;50.656;7.188;2023-09-30T06:24:06;15.60;99.90
9939;DHT22;5008;50.656;7.188;2023-09-30T06:26:32;15.60;99.90
9939;DHT22;5008;50.656;7.188;2023-09-30T06:28:59;15.60;99.90
9939;DHT22;5008;50.656;7.188;2023-09-30T06:31:26;15.60;99.90
9939;DHT22;5008;50.656;7.188;2023-09-30T06:33:54;15.70;99.90
9939;DHT22;5008;50.656;7.188;2023-09-30T06:36:25;15.70;99.90
9939;DHT22;5008;50.656;7.188;2023-09-30T06:38:51;15.70;99.90
9939;DHT22;5008;50.656;7.188;2023-09-30T06:41:18;15.60;99.90
9939;DHT22;5008;50.656;7.188;2023-09-30T06:43:45;15.60;99.90
9939;DHT22;5008;50.656;7.188;2023-09-30T06:46:13;15.60;99.90
9939;DHT22;5008;50.656;7.188;2023-09-30T06:48:39;15.70;99.90
9939;DHT22;5008;50.656;7.188;2023-09-30T06:51:07;15.70;99.90
9939;DHT22;5008;50.656;7.188;2023-09-30T06:53:35;15.70;99.90
9939;DHT22;5008;50.656;7.188;2023-09-30T06:56:04;15.70;99.90
9939;DHT22;5008;50.656;7.188;2023-09-30T06:58:31;15.70;99.90
9939;DHT22;5008;50.656;7.188;2023-09-30T07:00:58;15.70;99.90
9939;DHT22;5008;50.656;7.188;2023-09-30T07:03:25;15.60;99.90
9939;DHT22;5008;50.656;7.188;2023-09-30T07:05:52;15.70;99.90
9939;DHT22;5008;50.656;7.188;2023-09-30T07:08:20;15.70;99.90
9939;DHT22;5008;50.656;7.188;2023-09-30T07:10:49;15.70;99.90
9939;DHT22;5008;50.656;7.188;2023-09-30T07:13:18;15.70;99.90
9939;DHT22;5008;50.656;7.188;2023-09-30T07:15:44;15.70;99.90
9939;DHT22;5008;50.656;7.188;2023-09-30T07:18:11;15.70;99.90
9939;DHT22;5008;50.656;7.188;2023-09-30T07:20:39;15.80;99.90
9939;DHT22;5008;50.656;7.188;2023-09-30T07:23:06;15.80;99.90
9939;DHT22;5008;50.656;7.188;2023-09-30T07:25:34;15.60;99.90
9939;DHT22;5008;50.656;7.188;2023-09-30T07:28:03;15.40;99.90
9939;DHT22;5008;50.656;7.188;2023-09-30T07:30:30;15.20;99.90
9939;DHT22;5008;50.656;7.188;2023-09-30T07:32:56;15.10;99.90
9939;DHT22;5008;50.656;7.188;2023-09-30T07:35:23;15.10;99.90
9939;DHT22;5008;50.656;7.188;2023-09-30T07:37:50;15.10;99.90
9939;DHT22;5008;50.656;7.188;2023-09-30T07:40:18;15.00;99.90
9939;DHT22;5008;50.656;7.188;2023-09-30T07:42:46;15.10;99.90
9939;DHT22;5008;50.656;7.188;2023-09-30T07:45:14;15.00;99.90
9939;DHT22;5008;50.656;7.188;2023-09-30T07:47:43;15.00;99.90
9939;DHT22;5008;50.656;7.188;2023-09-30T07:50:11;15.00;99.90
9939;DHT22;5008;50.656;7.188;2023-09-30T07:52:38;15.00;99.90
9939;DHT22;5008;50.656;7.188;2023-09-30T07:55:07;15.00;99.90
9939;DHT22;5008;50.656;7.188;2023-09-30T07:57:34;15.00;99.90
9939;DHT22;5008;50.656;7.188;2023-09-30T08:00:01;15.00;99.90
9939;DHT22;5008;50.656;7.188;2023-09-30T08:02:34;15.10;99.90
9939;DHT22;5008;50.656;7.188;2023-09-30T08:05:02;15.00;99.90
9939;DHT22;5008;50.656;7.188;2023-09-30T08:07:29;15.00;99.90
9939;DHT22;5008;50.656;7.188;2023-09-30T08:09:55;15.00;99.90
9939;DHT22;5008;50.656;7.188;2023-09-30T08:12:22;15.10;99.90
9939;DHT22;5008;50.656;7.188;2023-09-30T08:14:49;15.10;99.90
9939;DHT22;5008;50.656;7.188;2023-09-30T08:17:17;15.10;99.90
9939;DHT22;5008;50.656;7.188;2023-09-30T08:19:45;15.10;99.90
9939;DHT22;5008;50.656;7.188;2023-09-30T08:22:13;15.10;99.90
9939;DHT22;5008;50.656;7.188;2023-09-30T08:24:40;15.10;99.90
9939;DHT22;5008;50.656;7.188;2023-09-30T08:27:07;15.10;99.90
9939;DHT22;5008;50.656;7.188;2023-09-30T08:29:34;15.10;99.90
9939;DHT22;5008;50.656;7.188;2023-09-30T08:32:02;15.10;99.90
9939;DHT22;5008;50.656;7.188;2023-09-30T08:34:32;15.20;99.90
9939;DHT22;5008;50.656;7.188;2023-09-30T08:37:00;15.30;99.90
9939;DHT22;5008;50.656;7.188;2023-09-30T08:39:27;15.30;99.90
9939;DHT22;5008;50.656;7.188;2023-09-30T08:41:55;15.40;99.90
9939;DHT22;5008;50.656;7.188;2023-09-30T08:44:23;15.50;99.90
9939;DHT22;5008;50.656;7.188;2023-09-30T08:46:52;15.50;99.90
9939;DHT22;5008;50.656;7.188;2023-09-30T08:49:20;15.60;99.90
9939;DHT22;5008;50.656;7.188;2023-09-30T08:51:48;15.70;99.90
9939;DHT22;5008;50.656;7.188;2023-09-30T08:54:17;15.70;99.90
9939;DHT22;5008;50.656;7.188;2023-09-30T08:56:47;15.80;99.90
9939;DHT22;5008;50.656;7.188;2023-09-30T08:59:15;15.80;99.90
9939;DHT22;5008;50.656;7.188;2023-09-30T09:01:42;15.80;99.90
9939;DHT22;5008;50.656;7.188;2023-09-30T09:04:10;15.80;99.90
9939;DHT22;5008;50.656;7.188;2023-09-30T09:06:37;15.90;99.90
9939;DHT22;5008;50.656;7.188;2023-09-30T09:09:13;16.00;99.90
9939;DHT22;5008;50.656;7.188;2023-09-30T09:11:42;16.00;99.90
9939;DHT22;5008;50.656;7.188;2023-09-30T09:14:09;16.10;99.90
9939;DHT22;5008;50.656;7.188;2023-09-30T09:16:36;16.10;99.90
9939;DHT22;5008;50.656;7.188;2023-09-30T09:19:13;16.20;99.90
9939;DHT22;5008;50.656;7.188;2023-09-30T09:21:53;16.30;99.90
9939;DHT22;5008;50.656;7.188;2023-09-30T09:24:28;16.30;99.90
9939;DHT22;5008;50.656;7.188;2023-09-30T09:27:05;16.50;99.90
9939;DHT22;5008;50.656;7.188;2023-09-30T09:29:33;16.50;99.90
9939;DHT22;5008;50.656;7.188;2023-09-30T09:32:09;16.60;99.90
9939;DHT22;5008;50.656;7.188;2023-09-30T09:34:37;16.70;99.90
9939;DHT22;5008;50.656;7.188;2023-09-30T09:37:14;16.80;99.90
9939;DHT22;5008;50.656;7.188;2023-09-30T09:39:49;16.90;99.90
9939;DHT22;5008;50.656;7.188;2023-09-30T09:42:26;17.00;99.90
9939;DHT22;5008;50.656;7.188;2023-09-30T09:44:55;17.10;99.90
9939;DHT22;5008;50.656;7.188;2023-09-30T09:47:23;17.20;99.90
9939;DHT22;5008;50.656;7.188;2023-09-30T09:49:51;17.30;99.90
9939;DHT22;5008;50.656;7.188;2023-09-30T09:52:18;17.30;99.90
9939;DHT22;5008;50.656;7.188;2023-09-30T09:54:46;17.50;99.90
9939;DHT22;5008;50.656;7.188;2023-09-30T09:57:14;17.50;99.90
9939;DHT22;5008;50.656;7.188;2023-09-30T09:59:44;17.50;99.90
9939;DHT22;5008;50.656;7.188;2023-09-30T10:02:13;17.60;99.90
9939;DHT22;5008;50.656;7.188;2023-09-30T10:04:41;17.70;99.90
9939;DHT22;5008;50.656;7.188;2023-09-30T10:07:10;17.70;99.90
9939;DHT22;5008;50.656;7.188;2023-09-30T10:09:41;17.90;99.90
9939;DHT22;5008;50.656;7.188;2023-09-30T10:12:11;18.00;99.90
9939;DHT22;5008;50.656;7.188;2023-09-30T10:14:38;18.00;99.90
9939;DHT22;5008;50.656;7.188;2023-09-30T10:17:09;18.10;99.90
9939;DHT22;5008;50.656;7.188;2023-09-30T10:19:36;18.10;99.90
9939;DHT22;5008;50.656;7.188;2023-09-30T10:22:22;18.10;99.90
9939;DHT22;5008;50.656;7.188;2023-09-30T10:24:51;18.10;99.90
9939;DHT22;5008;50.656;7.188;2023-09-30T10:27:31;18.10;99.90
9939;DHT22;5008;50.656;7.188;2023-09-30T10:30:08;18.00;99.90
9939;DHT22;5008;50.656;7.188;2023-09-30T10:33:09;18.00;99.90
9939;DHT22;5008;50.656;7.188;2023-09-30T10:35:46;18.00;99.90
9939;DHT22;5008;50.656;7.188;2023-09-30T10:38:39;18.10;99.90
9939;DHT22;5008;50.656;7.188;2023-09-30T10:41:09;18.20;99.90
9939;DHT22;5008;50.656;7.188;2023-09-30T10:43:41;18.10;99.90
9939;DHT22;5008;50.656;7.188;2023-09-30T10:46:32;18.00;99.90
9939;DHT22;5008;50.656;7.188;2023-09-30T10:49:29;18.00;99.90
9939;DHT22;5008;50.656;7.188;2023-09-30T10:51:58;18.00;99.90
9939;DHT22;5008;50.656;7.188;2023-09-30T10:54:27;18.00;99.90
9939;DHT22;5008;50.656;7.188;2023-09-30T10:56:54;18.00;99.90
9939;DHT22;5008;50.656;7.188;2023-09-30T10:59:22;18.10;99.90
9939;DHT22;5008;50.656;7.188;2023-09-30T11:01:50;18.20;99.90
9939;DHT22;5008;50.656;7.188;2023-09-30T11:04:19;18.30;99.90
9939;DHT22;5008;50.656;7.188;2023-09-30T11:06:46;18.30;99.90
9939;DHT22;5008;50.656;7.188;2023-09-30T11:09:15;18.30;99.90
9939;DHT22;5008;50.656;7.188;2023-09-30T11:11:44;18.40;99.90
9939;DHT22;5008;50.656;7.188;2023-09-30T11:14:21;18.30;99.90
9939;DHT22;5008;50.656;7.188;2023-09-30T11:16:49;18.40;99.90
9939;DHT22;5008;50.656;7.188;2023-09-30T11:19:18;18.40;99.90
9939;DHT22;5008;50.656;7.188;2023-09-30T11:21:47;18.40;99.90
9939;DHT22;5008;50.656;7.188;2023-09-30T11:24:15;18.30;99.90
9939;DHT22;5008;50.656;7.188;2023-09-30T11:26:42;18.40;99.90
9939;DHT22;5008;50.656;7.188;2023-09-30T11:29:11;18.50;99.90
9939;DHT22;5008;50.656;7.188;2023-09-30T11:31:39;18.50;99.90
9939;DHT22;5008;50.656;7.188;2023-09-30T11:34:06;18.60;99.90
9939;DHT22;5008;50.656;7.188;2023-09-30T11:36:36;18.60;99.90
9939;DHT22;5008;50.656;7.188;2023-09-30T11:39:05;18.70;99.90
9939;DHT22;5008;50.656;7.188;2023-09-30T11:41:35;18.90;99.90
9939;DHT22;5008;50.656;7.188;2023-09-30T11:44:05;18.80;99.90
9939;DHT22;5008;50.656;7.188;2023-09-30T11:46:48;18.90;99.90
9939;DHT22;5008;50.656;7.188;2023-09-30T11:49:24;19.00;99.90
9939;DHT22;5008;50.656;7.188;2023-09-30T11:51:53;19.20;99.90
9939;DHT22;5008;50.656;7.188;2023-09-30T11:54:20;19.10;99.90
9939;DHT22;5008;50.656;7.188;2023-09-30T11:56:48;19.20;99.90
9939;DHT22;5008;50.656;7.188;2023-09-30T11:59:16;19.20;99.90
9939;DHT22;5008;50.656;7.188;2023-09-30T12:01:45;19.20;99.90
9939;DHT22;5008;50.656;7.188;2023-09-30T12:04:14;19.10;99.90
9939;DHT22;5008;50.656;7.188;2023-09-30T12:06:42;19.10;99.90
9939;DHT22;5008;50.656;7.188;2023-09-30T12:09:11;19.00;99.90
9939;DHT22;5008;50.656;7.188;2023-09-30T12:11:40;19.10;99.90
9939;DHT22;5008;50.656;7.188;2023-09-30T12:14:10;19.00;99.90
9939;DHT22;5008;50.656;7.188;2023-09-30T12:16:37;19.00;99.90
9939;DHT22;5008;50.656;7.188;2023-09-30T12:19:04;19.10;99.90
9939;DHT22;5008;50.656;7.188;2023-09-30T12:21:32;19.30;99.90
9939;DHT22;5008;50.656;7.188;2023-09-30T12:24:00;19.30;99.90
9939;DHT22;5008;50.656;7.188;2023-09-30T12:26:28;19.50;99.90
9939;DHT22;5008;50.656;7.188;2023-09-30T12:28:55;19.50;99.90
9939;DHT22;5008;50.656;7.188;2023-09-30T12:31:22;19.60;99.90
9939;DHT22;5008;50.656;7.188;2023-09-30T12:33:49;19.80;99.90
9939;DHT22;5008;50.656;7.188;2023-09-30T12:36:17;19.70;99.90
9939;DHT22;5008;50.656;7.188;2023-09-30T12:38:44;19.70;99.90
9939;DHT22;5008;50.656;7.188;2023-09-30T12:41:12;19.70;99.90
9939;DHT22;5008;50.656;7.188;2023-09-30T12:43:40;19.70;99.90
9939;DHT22;5008;50.656;7.188;2023-09-30T12:46:08;19.70;99.90
9939;DHT22;5008;50.656;7.188;2023-09-30T12:48:35;19.80;99.90
9939;DHT22;5008;50.656;7.188;2023-09-30T12:51:04;19.90;99.90
9939;DHT22;5008;50.656;7.188;2023-09-30T12:53:32;19.80;99.90
9939;DHT22;5008;50.656;7.188;2023-09-30T12:55:59;19.70;99.90
9939;DHT22;5008;50.656;7.188;2023-09-30T12:58:26;19.60;99.90
9939;DHT22;5008;50.656;7.188;2023-09-30T13:00:55;19.70;99.90
9939;DHT22;5008;50.656;7.188;2023-09-30T13:03:23;19.70;99.90
9939;DHT22;5008;50.656;7.188;2023-09-30T13:05:49;19.70;99.90
9939;DHT22;5008;50.656;7.188;2023-09-30T13:08:16;19.90;99.90
9939;DHT22;5008;50.656;7.188;2023-09-30T13:10:44;19.90;99.90
9939;DHT22;5008;50.656;7.188;2023-09-30T13:13:13;19.90;99.90
9939;DHT22;5008;50.656;7.188;2023-09-30T13:15:39;20.00;99.90
9939;DHT22;5008;50.656;7.188;2023-09-30T13:18:08;20.00;99.90
9939;DHT22;5008;50.656;7.188;2023-09-30T13:20:35;20.00;99.90
9939;DHT22;5008;50.656;7.188;2023-09-30T13:23:26;20.00;99.90
9939;DHT22;5008;50.656;7.188;2023-09-30T13:25:53;19.90;99.90
9939;DHT22;5008;50.656;7.188;2023-09-30T13:28:20;19.90;99.90
9939;DHT22;5008;50.656;7.188;2023-09-30T13:30:46;19.80;99.90
9939;DHT22;5008;50.656;7.188;2023-09-30T13:33:15;19.80;99.90
9939;DHT22;5008;50.656;7.188;2023-09-30T13:35:45;19.80;99.90
9939;DHT22;5008;50.656;7.188;2023-09-30T13:38:12;19.80;99.90
9939;DHT22;5008;50.656;7.188;2023-09-30T13:40:39;19.80;99.90
9939;DHT22;5008;50.656;7.188;2023-09-30T13:43:06;19.90;99.90
9939;DHT22;5008;50.656;7.188;2023-09-30T13:45:33;20.00;99.90
9939;DHT22;5008;50.656;7.188;2023-09-30T13:48:00;20.00;99.90
9939;DHT22;5008;50.656;7.188;2023-09-30T13:50:28;19.90;99.90
9939;DHT22;5008;50.656;7.188;2023-09-30T13:52:55;20.00;99.90
9939;DHT22;5008;50.656;7.188;2023-09-30T13:55:22;20.00;99.90
9939;DHT22;5008;50.656;7.188;2023-09-30T13:57:49;20.00;99.90
9939;DHT22;5008;50.656;7.188;2023-09-30T14:00:16;20.00;99.90
9939;DHT22;5008;50.656;7.188;2023-09-30T14:02:43;20.10;99.90
9939;DHT22;5008;50.656;7.188;2023-09-30T14:05:10;20.10;99.90
9939;DHT22;5008;50.656;7.188;2023-09-30T14:07:40;20.30;99.90
9939;DHT22;5008;50.656;7.188;2023-09-30T14:10:08;20.40;99.90
9939;DHT22;5008;50.656;7.188;2023-09-30T14:12:36;20.30;99.90
9939;DHT22;5008;50.656;7.188;2023-09-30T14:15:03;20.40;99.90
9939;DHT22;5008;50.656;7.188;2023-09-30T14:17:30;20.40;99.90
9939;DHT22;5008;50.656;7.188;2023-09-30T14:19:57;20.50;99.90
9939;DHT22;5008;50.656;7.188;2023-09-30T14:22:24;20.40;99.90
9939;DHT22;5008;50.656;7.188;2023-09-30T14:24:53;20.30;99.90
9939;DHT22;5008;50.656;7.188;2023-09-30T14:27:20;20.20;99.90
9939;DHT22;5008;50.656;7.188;2023-09-30T14:29:47;20.10;99.90
9939;DHT22;5008;50.656;7.188;2023-09-30T14:32:14;20.00;99.90
9939;DHT22;5008;50.656;7.188;2023-09-30T14:34:40;20.00;99.90
9939;DHT22;5008;50.656;7.188;2023-09-30T14:37:07;20.00;99.90
9939;DHT22;5008;50.656;7.188;2023-09-30T14:39:34;20.00;99.90
9939;DHT22;5008;50.656;7.188;2023-09-30T14:42:02;20.00;99.90
9939;DHT22;5008;50.656;7.188;2023-09-30T14:44:29;20.00;99.90
9939;DHT22;5008;50.656;7.188;2023-09-30T14:46:59;20.00;99.90
9939;DHT22;5008;50.656;7.188;2023-09-30T14:49:26;20.00;99.90
9939;DHT22;5008;50.656;7.188;2023-09-30T14:51:53;20.00;99.90
9939;DHT22;5008;50.656;7.188;2023-09-30T14:54:20;20.10;99.90
9939;DHT22;5008;50.656;7.188;2023-09-30T14:56:46;20.20;99.90
9939;DHT22;5008;50.656;7.188;2023-09-30T14:59:15;20.40;99.90
9939;DHT22;5008;50.656;7.188;2023-09-30T15:01:41;20.60;99.90
9939;DHT22;5008;50.656;7.188;2023-09-30T15:04:08;20.60;99.90
9939;DHT22;5008;50.656;7.188;2023-09-30T15:06:35;20.40;99.90
9939;DHT22;5008;50.656;7.188;2023-09-30T15:09:02;20.20;99.90
9939;DHT22;5008;50.656;7.188;2023-09-30T15:11:29;20.10;99.90
9939;DHT22;5008;50.656;7.188;2023-09-30T15:13:56;20.10;99.90
9939;DHT22;5008;50.656;7.188;2023-09-30T15:16:25;20.00;99.90
9939;DHT22;5008;50.656;7.188;2023-09-30T15:18:51;19.90;99.90
9939;DHT22;5008;50.656;7.188;2023-09-30T15:21:19;19.70;99.90
9939;DHT22;5008;50.656;7.188;2023-09-30T15:23:46;19.70;99.90
9939;DHT22;5008;50.656;7.188;2023-09-30T15:26:13;19.70;99.90
9939;DHT22;5008;50.656;7.188;2023-09-30T15:28:41;19.60;99.90
9939;DHT22;5008;50.656;7.188;2023-09-30T15:31:10;19.60;99.90
9939;DHT22;5008;50.656;7.188;2023-09-30T15:33:38;19.50;99.90
9939;DHT22;5008;50.656;7.188;2023-09-30T15:36:11;19.40;99.90
9939;DHT22;5008;50.656;7.188;2023-09-30T15:38:38;19.40;99.90
9939;DHT22;5008;50.656;7.188;2023-09-30T15:41:05;19.30;99.90
9939;DHT22;5008;50.656;7.188;2023-09-30T15:43:32;19.30;99.90
9939;DHT22;5008;50.656;7.188;2023-09-30T15:46:01;19.20;99.90
9939;DHT22;5008;50.656;7.188;2023-09-30T15:48:28;19.20;99.90
9939;DHT22;5008;50.656;7.188;2023-09-30T15:50:56;19.20;99.90
9939;DHT22;5008;50.656;7.188;2023-09-30T15:53:23;19.10;99.90
9939;DHT22;5008;50.656;7.188;2023-09-30T15:55:50;19.10;99.90
9939;DHT22;5008;50.656;7.188;2023-09-30T15:58:18;19.00;99.90
9939;DHT22;5008;50.656;7.188;2023-09-30T16:00:45;19.00;99.90
9939;DHT22;5008;50.656;7.188;2023-09-30T16:03:13;18.90;99.90
9939;DHT22;5008;50.656;7.188;2023-09-30T16:05:40;18.90;99.90
9939;DHT22;5008;50.656;7.188;2023-09-30T16:08:09;18.80;99.90
9939;DHT22;5008;50.656;7.188;2023-09-30T16:10:36;18.80;99.90
9939;DHT22;5008;50.656;7.188;2023-09-30T16:13:03;18.70;99.90
9939;DHT22;5008;50.656;7.188;2023-09-30T16:15:31;18.70;99.90
9939;DHT22;5008;50.656;7.188;2023-09-30T16:17:58;18.70;99.90
9939;DHT22;5008;50.656;7.188;2023-09-30T16:20:25;18.70;99.90
9939;DHT22;5008;50.656;7.188;2023-09-30T16:22:52;18.80;99.90
9939;DHT22;5008;50.656;7.188;2023-09-30T16:25:21;18.70;99.90
9939;DHT22;5008;50.656;7.188;2023-09-30T16:27:48;18.70;99.90
9939;DHT22;5008;50.656;7.188;2023-09-30T16:30:15;18.70;99.90
9939;DHT22;5008;50.656;7.188;2023-09-30T16:32:42;18.70;99.90
9939;DHT22;5008;50.656;7.188;2023-09-30T16:35:09;18.60;99.90
9939;DHT22;5008;50.656;7.188;2023-09-30T16:37:36;18.50;99.90
9939;DHT22;5008;50.656;7.188;2023-09-30T16:40:04;18.50;99.90
9939;DHT22;5008;50.656;7.188;2023-09-30T16:42:33;18.50;99.90
9939;DHT22;5008;50.656;7.188;2023-09-30T16:45:00;18.30;99.90
9939;DHT22;5008;50.656;7.188;2023-09-30T16:47:28;18.30;99.90
9939;DHT22;5008;50.656;7.188;2023-09-30T16:49:55;18.20;99.90
9939;DHT22;5008;50.656;7.188;2023-09-30T16:52:22;18.20;99.90
9939;DHT22;5008;50.656;7.188;2023-09-30T16:54:50;18.00;99.90
9939;DHT22;5008;50.656;7.188;2023-09-30T16:57:17;18.00;99.90
9939;DHT22;5008;50.656;7.188;2023-09-30T16:59:45;17.80;99.90
9939;DHT22;5008;50.656;7.188;2023-09-30T17:02:12;17.70;99.90
9939;DHT22;5008;50.656;7.188;2023-09-30T17:04:41;17.60;99.90
9939;DHT22;5008;50.656;7.188;2023-09-30T17:07:08;17.50;99.90
9939;DHT22;5008;50.656;7.188;2023-09-30T17:09:35;17.40;99.90
9939;DHT22;5008;50.656;7.188;2023-09-30T17:12:02;17.40;99.90
9939;DHT22;5008;50.656;7.188;2023-09-30T17:14:31;17.40;99.90
9939;DHT22;5008;50.656;7.188;2023-09-30T17:17:00;17.30;99.90
9939;DHT22;5008;50.656;7.188;2023-09-30T17:19:27;17.20;99.90
9939;DHT22;5008;50.656;7.188;2023-09-30T17:21:54;17.20;99.90
9939;DHT22;5008;50.656;7.188;2023-09-30T17:24:21;17.20;99.90
9939;DHT22;5008;50.656;7.188;2023-09-30T17:26:48;17.10;99.90
9939;DHT22;5008;50.656;7.188;2023-09-30T17:29:15;17.00;99.90
9939;DHT22;5008;50.656;7.188;2023-09-30T17:31:41;16.90;99.90
9939;DHT22;5008;50.656;7.188;2023-09-30T17:34:09;16.90;99.90
9939;DHT22;5008;50.656;7.188;2023-09-30T17:36:36;16.90;99.90
9939;DHT22;5008;50.656;7.188;2023-09-30T17:39:03;16.80;99.90
9939;DHT22;5008;50.656;7.188;2023-09-30T17:41:30;16.70;99.90
9939;DHT22;5008;50.656;7.188;2023-09-30T17:43:58;16.60;99.90
9939;DHT22;5008;50.656;7.188;2023-09-30T17:46:24;16.60;99.90
9939;DHT22;5008;50.656;7.188;2023-09-30T17:48:51;16.50;99.90
9939;DHT22;5008;50.656;7.188;2023-09-30T17:51:19;16.40;99.90
9939;DHT22;5008;50.656;7.188;2023-09-30T17:53:46;16.50;99.90
9939;DHT22;5008;50.656;7.188;2023-09-30T17:56:14;16.30;99.90
9939;DHT22;5008;50.656;7.188;2023-09-30T17:58:41;16.30;99.90
9939;DHT22;5008;50.656;7.188;2023-09-30T18:01:08;16.20;99.90
9939;DHT22;5008;50.656;7.188;2023-09-30T18:03:35;16.20;99.90
9939;DHT22;5008;50.656;7.188;2023-09-30T18:06:05;16.10;99.90
9939;DHT22;5008;50.656;7.188;2023-09-30T18:08:33;16.10;99.90
9939;DHT22;5008;50.656;7.188;2023-09-30T18:11:01;16.10;99.90
9939;DHT22;5008;50.656;7.188;2023-09-30T18:13:29;16.00;99.90
9939;DHT22;5008;50.656;7.188;2023-09-30T18:15:57;16.00;99.90
9939;DHT22;5008;50.656;7.188;2023-09-30T18:18:23;16.00;99.90
9939;DHT22;5008;50.656;7.188;2023-09-30T18:20:50;15.90;99.90
9939;DHT22;5008;50.656;7.188;2023-09-30T18:23:17;15.80;99.90
9939;DHT22;5008;50.656;7.188;2023-09-30T18:25:45;15.70;99.90
9939;DHT22;5008;50.656;7.188;2023-09-30T18:28:12;15.70;99.90
9939;DHT22;5008;50.656;7.188;2023-09-30T18:30:39;15.70;99.90
9939;DHT22;5008;50.656;7.188;2023-09-30T18:33:06;15.60;99.90
9939;DHT22;5008;50.656;7.188;2023-09-30T18:35:36;15.50;99.90
9939;DHT22;5008;50.656;7.188;2023-09-30T18:38:03;15.50;99.90
9939;DHT22;5008;50.656;7.188;2023-09-30T18:40:30;15.50;99.90
9939;DHT22;5008;50.656;7.188;2023-09-30T18:42:58;15.40;99.90
9939;DHT22;5008;50.656;7.188;2023-09-30T18:45:25;15.40;99.90
9939;DHT22;5008;50.656;7.188;2023-09-30T18:47:53;15.30;99.90
9939;DHT22;5008;50.656;7.188;2023-09-30T18:50:20;15.30;99.90
9939;DHT22;5008;50.656;7.188;2023-09-30T18:52:47;15.30;99.90
9939;DHT22;5008;50.656;7.188;2023-09-30T18:55:14;15.30;99.90
9939;DHT22;5008;50.656;7.188;2023-09-30T18:57:41;15.30;99.90
9939;DHT22;5008;50.656;7.188;2023-09-30T19:00:11;15.30;99.90
9939;DHT22;5008;50.656;7.188;2023-09-30T19:02:38;15.30;99.90
9939;DHT22;5008;50.656;7.188;2023-09-30T19:05:05;15.20;99.90
9939;DHT22;5008;50.656;7.188;2023-09-30T19:07:34;15.10;99.90
9939;DHT22;5008;50.656;7.188;2023-09-30T19:10:01;15.10;99.90
9939;DHT22;5008;50.656;7.188;2023-09-30T19:12:28;15.10;99.90
9939;DHT22;5008;50.656;7.188;2023-09-30T19:14:54;15.00;99.90
9939;DHT22;5008;50.656;7.188;2023-09-30T19:17:23;14.90;99.90
9939;DHT22;5008;50.656;7.188;2023-09-30T19:19:49;14.80;99.90
9939;DHT22;5008;50.656;7.188;2023-09-30T19:22:16;14.70;99.90
9939;DHT22;5008;50.656;7.188;2023-09-30T19:24:43;14.70;99.90
9939;DHT22;5008;50.656;7.188;2023-09-30T19:27:13;14.80;99.90
9939;DHT22;5008;50.656;7.188;2023-09-30T19:29:40;14.90;99.90
9939;DHT22;5008;50.656;7.188;2023-09-30T19:32:06;14.80;99.90
9939;DHT22;5008;50.656;7.188;2023-09-30T19:34:36;14.80;99.90
9939;DHT22;5008;50.656;7.188;2023-09-30T19:37:02;14.60;99.90
9939;DHT22;5008;50.656;7.188;2023-09-30T19:39:29;14.50;99.90
9939;DHT22;5008;50.656;7.188;2023-09-30T19:41:56;14.60;99.90
9939;DHT22;5008;50.656;7.188;2023-09-30T19:44:23;14.60;99.90
9939;DHT22;5008;50.656;7.188;2023-09-30T19:46:50;14.60;99.90
9939;DHT22;5008;50.656;7.188;2023-09-30T19:49:17;14.70;99.90
9939;DHT22;5008;50.656;7.188;2023-09-30T19:51:46;14.60;99.90
9939;DHT22;5008;50.656;7.188;2023-09-30T19:54:13;14.60;99.90
9939;DHT22;5008;50.656;7.188;2023-09-30T19:56:40;14.50;99.90
9939;DHT22;5008;50.656;7.188;2023-09-30T19:59:07;14.50;99.90
9939;DHT22;5008;50.656;7.188;2023-09-30T20:01:34;14.50;99.90
9939;DHT22;5008;50.656;7.188;2023-09-30T20:04:00;14.50;99.90
9939;DHT22;5008;50.656;7.188;2023-09-30T20:06:27;14.40;99.90
9939;DHT22;5008;50.656;7.188;2023-09-30T20:08:56;14.30;99.90